Time;durP1;ratioP1;P1;durP2;ratioP2;P2;SDS_P1;SDS_P2;PMS_P1;PMS_P2;Temp;Humidity;BMP_temperature;BMP_pressure;BME280_temperature;BME280_humidity;BME280_pressure;Samples;Min_cycle;Max_cycle;Signal;HPM_P1;HPM_P2
2021/09/28 00:00:28;;;;;;;0.73;0.50;;;;;;;11.37;69.26;100635.13;4961933;28;20061;-75
2021/09/28 00:02:57;;;;;;;1.40;0.55;;;;;;;11.41;68.89;100633.50;4969777;28;20050;-74
2021/09/28 00:05:22;;;;;;;1.25;0.32;;;;;;;11.38;69.26;100625.81;4973957;28;20089;-76
2021/09/28 00:07:48;;;;;;;5.93;1.38;;;;;;;11.38;68.99;100623.06;4959208;28;20584;-76
2021/09/28 00:10:14;;;;;;;5.70;0.43;;;;;;;11.35;69.13;100627.16;4965751;28;20389;-76
2021/09/28 00:12:41;;;;;;;7.90;1.10;;;;;;;11.28;69.95;100638.34;4948631;28;20161;-75
2021/09/28 00:15:09;;;;;;;4.10;1.00;;;;;;;11.26;70.07;100636.97;4971802;28;20038;-75
2021/09/28 00:17:34;;;;;;;9.10;0.65;;;;;;;11.24;70.18;100641.88;4951995;28;20035;-76
2021/09/28 00:19:59;;;;;;;0.70;0.50;;;;;;;11.26;70.11;100639.72;4950697;28;20038;-74
2021/09/28 00:22:25;;;;;;;3.72;0.93;;;;;;;11.22;70.59;100644.88;4961695;28;20031;-74
2021/09/28 00:24:51;;;;;;;1.67;0.98;;;;;;;11.19;70.70;100639.94;4958587;28;20077;-74
2021/09/28 00:27:16;;;;;;;3.22;1.17;;;;;;;11.16;71.01;100640.47;4961971;28;20031;-76
2021/09/28 00:29:42;;;;;;;2.33;0.77;;;;;;;11.18;70.94;100649.22;4956816;28;20687;-75
2021/09/28 00:32:07;;;;;;;1.85;0.40;;;;;;;11.16;70.77;100651.44;4971641;28;20035;-76
2021/09/28 00:34:34;;;;;;;1.40;0.52;;;;;;;11.17;70.66;100636.66;4947599;28;20498;-75
2021/09/28 00:37:00;;;;;;;0.40;0.20;;;;;;;11.17;70.30;100647.59;4954752;28;20053;-76
2021/09/28 00:39:25;;;;;;;1.00;0.50;;;;;;;11.14;69.88;100637.16;4950789;28;20067;-75
2021/09/28 00:41:51;;;;;;;0.60;0.30;;;;;;;11.13;70.28;100641.81;4953910;28;20031;-74
2021/09/28 00:44:30;;;;;;;1.48;0.65;;;;;;;11.08;69.98;100635.50;4945037;28;20034;-74
2021/09/28 00:46:55;;;;;;;1.88;0.40;;;;;;;11.07;69.92;100642.03;4952483;29;20355;-76
2021/09/28 00:49:21;;;;;;;4.38;0.95;;;;;;;11.06;70.37;100645.88;4937074;28;20050;-74
2021/09/28 00:51:46;;;;;;;6.28;1.13;;;;;;;11.05;70.88;100649.72;4955224;28;20031;-77
2021/09/28 00:54:12;;;;;;;0.63;0.50;;;;;;;11.05;71.19;100645.03;4948618;28;20035;-76
2021/09/28 00:56:43;;;;;;;10.02;0.80;;;;;;;11.03;71.56;100646.41;4948576;28;20027;-76
2021/09/28 00:59:08;;;;;;;1.30;0.65;;;;;;;10.99;72.09;100636.00;4949521;28;20038;-78
2021/09/28 01:01:35;;;;;;;4.07;0.85;;;;;;;11.05;71.73;100639.56;4937483;29;20023;-80
2021/09/28 01:04:01;;;;;;;2.72;0.65;;;;;;;11.09;72.38;100634.41;4932035;29;20027;-78
2021/09/28 01:06:27;;;;;;;3.42;0.70;;;;;;;11.13;72.59;100638.28;4954273;28;20035;-77
2021/09/28 01:08:52;;;;;;;2.50;0.73;;;;;;;11.16;72.33;100640.47;4938010;28;20032;-78
2021/09/28 01:11:18;;;;;;;0.55;0.32;;;;;;;11.18;72.47;100638.28;4946585;28;20123;-78
2021/09/28 01:13:43;;;;;;;2.03;1.10;;;;;;;11.20;72.41;100641.59;4955748;28;20035;-77
2021/09/28 01:16:11;;;;;;;1.25;0.30;;;;;;;11.21;72.39;100637.75;4954699;28;20027;-77
2021/09/28 01:18:41;;;;;;;0.77;0.20;;;;;;;11.23;72.10;100637.50;4953658;28;20028;-77
2021/09/28 01:21:13;;;;;;;2.65;0.43;;;;;;;11.26;72.49;100636.97;4954430;28;20106;-77
2021/09/28 01:23:46;;;;;;;3.53;0.60;;;;;;;11.26;72.14;100637.78;4945350;28;20073;-77
2021/09/28 01:26:14;;;;;;;1.40;0.22;;;;;;;11.31;72.00;100632.34;4955022;28;20054;-77
2021/09/28 01:28:40;;;;;;;1.15;0.38;;;;;;;11.31;72.08;100626.84;4940086;29;20031;-77
2021/09/28 01:31:06;;;;;;;10.57;0.70;;;;;;;11.30;72.42;100619.75;4954687;28;20457;-78
2021/09/28 01:33:31;;;;;;;1.13;0.50;;;;;;;11.33;71.94;100618.38;4964011;28;20077;-78
2021/09/28 01:35:57;;;;;;;6.38;0.60;;;;;;;11.34;72.26;100620.03;4976118;28;20064;-78
2021/09/28 01:38:22;;;;;;;0.88;0.40;;;;;;;11.37;72.21;100613.22;4958106;28;20042;-78
2021/09/28 01:40:48;;;;;;;2.10;0.50;;;;;;;11.37;72.37;100622.22;4971576;28;20027;-77
2021/09/28 01:43:14;;;;;;;1.27;0.40;;;;;;;11.35;71.92;100622.50;4959213;28;20114;-75
2021/09/28 01:45:41;;;;;;;0.57;0.20;;;;;;;11.37;72.51;100624.16;4975093;28;20045;-76
2021/09/28 01:48:07;;;;;;;0.82;0.32;;;;;;;11.32;72.22;100617.56;4952491;28;20030;-73
2021/09/28 01:50:35;;;;;;;0.80;0.32;;;;;;;11.32;72.36;100614.81;4949142;28;20033;-72
2021/09/28 01:53:00;;;;;;;2.00;0.60;;;;;;;11.28;72.85;100621.91;4954660;28;20058;-74
2021/09/28 01:55:26;;;;;;;6.32;0.57;;;;;;;11.24;72.54;100615.31;4969413;28;20057;-74
2021/09/28 01:57:56;;;;;;;0.80;0.40;;;;;;;11.21;72.92;100620.53;4955226;28;20518;-72
2021/09/28 02:00:26;;;;;;;4.85;0.52;;;;;;;11.21;72.81;100615.03;4958338;28;20046;-74
2021/09/28 02:02:52;;;;;;;3.10;0.60;;;;;;;11.20;73.42;100608.75;4947270;28;20026;-75
2021/09/28 02:05:18;;;;;;;0.82;0.38;;;;;;;11.11;72.81;100593.91;4965689;28;20377;-74
2021/09/28 02:07:44;;;;;;;5.88;0.85;;;;;;;11.17;72.81;100603.81;4970476;28;20482;-73
2021/09/28 02:10:10;;;;;;;4.13;0.40;;;;;;;11.13;72.83;100608.16;4969146;28;20039;-74
2021/09/28 02:12:37;;;;;;;1.77;0.68;;;;;;;11.12;73.02;100596.38;4955607;28;20050;-74
2021/09/28 02:15:07;;;;;;;0.30;0.15;;;;;;;11.06;73.22;100591.16;4953412;28;20031;-73
2021/09/28 02:17:32;;;;;;;0.75;0.50;;;;;;;11.06;72.87;100591.16;4951869;28;20396;-72
2021/09/28 02:19:57;;;;;;;2.65;0.50;;;;;;;11.11;73.28;100593.91;4971525;28;20035;-73
2021/09/28 02:22:23;;;;;;;0.30;0.20;;;;;;;11.11;73.22;100591.16;4951372;28;20027;-73
2021/09/28 02:24:49;;;;;;;0.38;0.20;;;;;;;11.15;72.98;100595.03;4945411;28;20031;-73
2021/09/28 02:27:16;;;;;;;0.28;0.20;;;;;;;11.18;73.04;100600.81;4936517;28;20151;-73
2021/09/28 02:29:41;;;;;;;0.10;0.10;;;;;;;11.26;72.82;100595.91;4935332;28;20031;-72
2021/09/28 02:32:07;;;;;;;2.78;0.55;;;;;;;11.30;73.00;100597.00;4970393;28;20043;-74
2021/09/28 02:34:35;;;;;;;2.42;0.40;;;;;;;11.33;73.08;100593.75;4952269;28;20051;-73
2021/09/28 02:37:03;;;;;;;0.70;0.30;;;;;;;11.37;72.68;100591.31;4949789;28;20372;-73
2021/09/28 02:39:28;;;;;;;0.80;0.32;;;;;;;11.43;72.77;100592.97;4938902;28;20033;-72
2021/09/28 02:41:54;;;;;;;0.85;0.75;;;;;;;11.46;72.80;100578.72;4935082;28;20014;-72
2021/09/28 02:44:20;;;;;;;4.47;0.70;;;;;;;11.47;72.62;100586.69;4949446;28;20023;-73
2021/09/28 02:46:45;;;;;;;3.28;0.55;;;;;;;11.53;72.46;100587.53;4955975;28;20037;-72
2021/09/28 02:49:11;;;;;;;1.42;0.57;;;;;;;11.55;72.82;100588.09;4951582;28;20034;-72
2021/09/28 02:51:36;;;;;;;1.48;0.28;;;;;;;11.58;72.67;100575.75;4936497;28;20038;-71
2021/09/28 02:54:02;;;;;;;0.30;0.20;;;;;;;11.62;72.28;100577.72;4943573;28;20035;-71
2021/09/28 02:56:27;;;;;;;0.40;0.10;;;;;;;11.66;72.86;100588.94;4965312;28;20027;-71
2021/09/28 02:58:53;;;;;;;0.93;0.15;;;;;;;11.68;72.42;100587.59;4967447;28;20469;-71
2021/09/28 03:01:18;;;;;;;0.32;0.20;;;;;;;11.70;72.39;100579.91;4971073;28;20035;-71
2021/09/28 03:03:43;;;;;;;0.25;0.22;;;;;;;11.74;72.21;100590.31;4924313;28;20398;-72
2021/09/28 03:06:09;;;;;;;1.85;0.38;;;;;;;11.72;72.07;100585.13;4949500;28;20042;-73
2021/09/28 03:08:34;;;;;;;5.78;0.47;;;;;;;11.70;72.23;100577.19;4943859;28;20062;-73
2021/09/28 03:11:00;;;;;;;1.33;0.20;;;;;;;11.71;72.42;100575.28;4955868;28;20053;-71
2021/09/28 03:13:27;;;;;;;2.30;0.25;;;;;;;11.72;72.04;100570.63;4933067;28;20038;-72
2021/09/28 03:15:53;;;;;;;2.17;0.57;;;;;;;11.72;72.33;100576.09;4967247;28;20161;-72
2021/09/28 03:18:19;;;;;;;2.55;0.95;;;;;;;11.70;72.43;100581.84;4961366;28;20042;-72
2021/09/28 03:20:44;;;;;;;1.90;0.80;;;;;;;11.69;72.49;100575.53;4937282;28;20031;-71
2021/09/28 03:23:09;;;;;;;2.50;0.70;;;;;;;11.67;72.62;100576.91;4949363;28;20505;-72
2021/09/28 03:25:35;;;;;;;1.85;0.52;;;;;;;11.66;72.71;100576.06;4968337;28;20507;-72
2021/09/28 03:28:03;;;;;;;0.85;0.55;;;;;;;11.65;72.97;100576.34;4937863;28;20034;-72
2021/09/28 03:30:29;;;;;;;0.68;0.50;;;;;;;11.66;72.90;100572.50;4934369;28;20038;-72
2021/09/28 03:32:55;;;;;;;0.55;0.40;;;;;;;11.65;73.13;100571.69;4941727;28;20420;-73
2021/09/28 03:35:20;;;;;;;1.52;0.60;;;;;;;11.69;73.09;100571.97;4953391;28;20055;-74
2021/09/28 03:37:50;;;;;;;2.10;0.77;;;;;;;11.68;73.11;100573.91;4944307;28;20465;-73
2021/09/28 03:40:15;;;;;;;8.05;1.02;;;;;;;11.62;73.52;100566.75;4940848;28;20058;-73
2021/09/28 03:42:41;;;;;;;6.93;0.80;;;;;;;11.70;73.50;100576.34;4936271;28;20388;-74
2021/09/28 03:45:08;;;;;;;4.25;1.00;;;;;;;11.69;73.54;100570.03;4962504;28;20042;-73
2021/09/28 03:47:43;;;;;;;;;;;;;;;;;;;;;
2021/09/28 03:50:11;;;;;;;3.22;1.40;;;;;;;11.71;73.87;100558.84;4968894;28;20035;-73
2021/09/28 03:52:37;;;;;;;2.13;0.57;;;;;;;11.82;73.77;100570.63;4971988;28;20080;-72
2021/09/28 03:55:03;;;;;;;1.73;1.00;;;;;;;11.86;73.29;100560.78;4970686;28;20473;-73
2021/09/28 03:57:36;;;;;;;4.22;0.45;;;;;;;11.92;73.61;100562.44;4955890;28;20041;-72
2021/09/28 04:00:02;;;;;;;1.35;0.30;;;;;;;11.93;73.58;100550.41;4944911;28;20035;-73
2021/09/28 04:02:28;;;;;;;2.03;0.55;;;;;;;12.04;73.83;100563.00;4967120;28;20812;-72
2021/09/28 04:04:53;;;;;;;3.58;0.30;;;;;;;12.11;73.58;100564.69;4967083;28;20034;-73
2021/09/28 04:07:21;;;;;;;3.65;0.50;;;;;;;12.16;73.55;100559.19;4939147;28;20053;-74
2021/09/28 04:09:46;;;;;;;7.57;0.85;;;;;;;12.25;73.38;100563.06;4957348;28;20034;-73
2021/09/28 04:12:12;;;;;;;2.85;0.55;;;;;;;12.28;72.67;100562.50;4922273;28;20030;-74
2021/09/28 04:14:39;;;;;;;2.63;0.47;;;;;;;12.30;73.12;100543.84;4957164;28;20030;-72
2021/09/28 04:17:05;;;;;;;4.25;0.70;;;;;;;12.42;72.44;100557.28;4948647;28;20047;-76
2021/09/28 04:19:30;;;;;;;1.15;0.43;;;;;;;12.44;72.47;100555.09;4970914;28;20027;-74
2021/09/28 04:21:56;;;;;;;6.20;0.60;;;;;;;12.44;72.59;100555.09;4946707;28;20097;-76
2021/09/28 04:24:21;;;;;;;1.63;0.50;;;;;;;12.46;72.85;100547.41;4974723;28;20026;-76
2021/09/28 04:26:47;;;;;;;2.63;0.90;;;;;;;12.45;71.99;100551.22;4966458;28;20126;-77
2021/09/28 04:29:12;;;;;;;1.67;0.70;;;;;;;12.48;72.58;100552.59;4972347;28;20080;-76
2021/09/28 04:31:38;;;;;;;2.60;0.32;;;;;;;12.48;71.99;100555.34;4964843;28;20047;-75
2021/09/28 04:34:03;;;;;;;1.33;0.50;;;;;;;12.44;72.18;100549.63;4955693;28;20465;-77
2021/09/28 04:36:29;;;;;;;1.65;0.50;;;;;;;12.47;72.23;100551.81;4976787;28;20027;-76
2021/09/28 04:38:55;;;;;;;2.33;0.88;;;;;;;12.45;71.94;100550.41;4975930;28;20027;-77
2021/09/28 04:41:20;;;;;;;0.65;0.35;;;;;;;12.45;72.16;100556.72;4968898;28;20034;-77
2021/09/28 04:43:47;;;;;;;2.58;0.30;;;;;;;12.48;72.28;100549.88;4961549;28;20436;-78
2021/09/28 04:46:16;;;;;;;2.15;0.70;;;;;;;12.44;72.43;100544.13;4953468;28;20054;-76
2021/09/28 04:48:44;;;;;;;2.47;0.55;;;;;;;12.38;72.31;100535.06;4953960;28;20027;-73
2021/09/28 04:51:09;;;;;;;2.33;0.45;;;;;;;12.38;72.01;100531.50;4969338;28;20128;-72
2021/09/28 04:53:35;;;;;;;0.60;0.28;;;;;;;12.42;72.22;100534.53;4936435;28;20087;-72
2021/09/28 04:56:00;;;;;;;0.40;0.20;;;;;;;12.40;72.60;100537.53;4939601;28;20086;-72
2021/09/28 04:58:26;;;;;;;6.53;0.65;;;;;;;12.42;72.28;100540.00;4966169;28;21601;-73
2021/09/28 05:00:52;;;;;;;1.73;0.90;;;;;;;12.42;72.79;100540.81;4955920;28;20533;-72
2021/09/28 05:03:18;;;;;;;4.10;0.93;;;;;;;12.44;72.90;100538.63;4968644;28;20035;-73
2021/09/28 05:05:44;;;;;;;1.73;0.95;;;;;;;12.46;72.49;100535.63;4955670;28;20030;-74
2021/09/28 05:08:10;;;;;;;0.70;0.50;;;;;;;12.51;72.61;100550.16;4954649;28;20027;-72
2021/09/28 05:10:36;;;;;;;2.47;0.57;;;;;;;12.57;73.04;100554.53;4953471;28;20031;-74
2021/09/28 05:13:06;;;;;;;4.95;0.60;;;;;;;12.62;73.26;100548.22;4964445;28;20031;-73
2021/09/28 05:15:32;;;;;;;4.38;1.27;;;;;;;12.57;74.52;100534.47;4951582;28;20118;-76
2021/09/28 05:17:58;;;;;;;1.75;0.95;;;;;;;12.60;74.78;100542.19;4957078;28;20489;-76
2021/09/28 05:20:23;;;;;;;1.80;0.70;;;;;;;12.55;75.32;100536.69;4972280;28;20035;-78
2021/09/28 05:22:48;;;;;;;3.58;0.88;;;;;;;12.51;75.09;100528.22;4973755;28;20014;-76
2021/09/28 05:25:14;;;;;;;6.20;0.80;;;;;;;12.52;76.30;100527.09;4956828;28;20354;-77
2021/09/28 05:27:40;;;;;;;7.53;1.17;;;;;;;12.59;75.44;100529.56;4962414;28;20027;-77
2021/09/28 05:30:06;;;;;;;2.42;0.38;;;;;;;12.59;75.92;100529.56;4961584;28;20560;-76
2021/09/28 05:32:34;;;;;;;3.42;0.98;;;;;;;12.55;75.53;100520.25;4957541;28;20050;-76
2021/09/28 05:35:00;;;;;;;2.38;0.63;;;;;;;12.58;75.64;100517.75;4943012;28;20042;-76
2021/09/28 05:37:25;;;;;;;2.85;0.73;;;;;;;12.63;75.64;100525.16;4972380;28;20034;-77
2021/09/28 05:39:50;;;;;;;2.42;0.65;;;;;;;12.63;75.10;100527.91;4935271;28;20027;-78
2021/09/28 05:42:16;;;;;;;2.45;0.40;;;;;;;12.65;75.49;100522.16;4955108;28;20029;-77
2021/09/28 05:44:42;;;;;;;3.13;0.70;;;;;;;12.62;75.25;100534.50;4958527;28;20050;-77
2021/09/28 05:47:08;;;;;;;4.75;0.60;;;;;;;12.67;75.73;100541.88;4951124;28;20069;-74
2021/09/28 05:49:33;;;;;;;3.65;0.52;;;;;;;12.61;75.96;100527.34;4970001;28;20051;-76
2021/09/28 05:52:00;;;;;;;6.60;0.63;;;;;;;12.63;75.30;100536.16;4949287;28;20028;-77
2021/09/28 05:54:26;;;;;;;1.38;0.30;;;;;;;12.69;75.02;100532.28;4952237;28;20465;-77
2021/09/28 05:56:53;;;;;;;0.93;0.40;;;;;;;12.70;74.95;100530.34;4952383;28;20074;-79
2021/09/28 05:59:19;;;;;;;3.72;0.60;;;;;;;12.71;75.26;100527.31;4968362;28;20035;-78
2021/09/28 06:01:46;;;;;;;4.00;0.40;;;;;;;12.80;74.49;100540.50;4973616;28;20022;-79
2021/09/28 06:04:12;;;;;;;1.73;0.38;;;;;;;12.83;74.91;100528.97;4958972;28;20030;-78
2021/09/28 06:06:38;;;;;;;1.23;0.20;;;;;;;12.86;74.50;100533.88;4964233;28;20495;-78
2021/09/28 06:09:04;;;;;;;2.60;0.45;;;;;;;12.84;73.98;100516.88;4970658;28;20098;-74
2021/09/28 06:11:30;;;;;;;0.40;0.17;;;;;;;12.91;74.21;100520.16;4968611;28;20109;-74
2021/09/28 06:13:56;;;;;;;0.40;0.17;;;;;;;12.96;73.96;100517.38;4946307;28;20023;-75
2021/09/28 06:16:21;;;;;;;0.10;0.10;;;;;;;13.01;74.29;100514.63;4969604;28;20082;-74
2021/09/28 06:18:47;;;;;;;1.35;0.20;;;;;;;13.08;74.12;100526.13;4955170;28;20039;-76
2021/09/28 06:21:12;;;;;;;0.45;0.30;;;;;;;13.14;74.03;100529.69;4959503;28;20146;-73
2021/09/28 06:23:38;;;;;;;0.50;0.20;;;;;;;13.17;73.47;100517.31;4945885;28;20046;-75
2021/09/28 06:26:03;;;;;;;0.63;0.25;;;;;;;13.21;74.12;100518.38;4970313;28;20027;-73
2021/09/28 06:28:30;;;;;;;0.68;0.32;;;;;;;13.26;74.04;100526.63;4967401;28;20027;-74
2021/09/28 06:30:55;;;;;;;7.28;0.70;;;;;;;13.29;73.83;100523.31;4945710;28;20035;-76
2021/09/28 06:33:21;;;;;;;3.97;0.65;;;;;;;13.29;74.01;100528.81;4962079;28;20489;-75
2021/09/28 06:35:46;;;;;;;4.05;0.98;;;;;;;13.32;73.71;100530.97;4971401;28;20035;-75
2021/09/28 06:38:12;;;;;;;3.42;0.50;;;;;;;13.34;74.42;100523.28;4965398;28;20023;-74
2021/09/28 06:40:37;;;;;;;2.80;0.93;;;;;;;13.35;74.60;100521.38;4956318;28;20711;-75
2021/09/28 06:43:03;;;;;;;2.28;0.73;;;;;;;13.37;74.12;100517.25;4966533;28;20039;-75
2021/09/28 06:45:29;;;;;;;0.90;0.40;;;;;;;13.40;74.54;100515.84;4968688;28;20026;-76
2021/09/28 06:47:55;;;;;;;2.70;0.60;;;;;;;13.42;74.75;100525.47;4967513;28;20043;-75
2021/09/28 06:50:20;;;;;;;2.05;0.70;;;;;;;13.47;74.52;100526.53;4970418;28;20117;-75
2021/09/28 06:52:46;;;;;;;1.02;0.50;;;;;;;13.50;73.86;100518.56;4954815;28;20599;-71
2021/09/28 06:55:13;;;;;;;0.65;0.32;;;;;;;13.55;74.21;100517.69;4966323;28;20118;-72
2021/09/28 06:57:38;;;;;;;1.55;0.30;;;;;;;13.63;74.14;100519.84;4963975;28;20043;-73
2021/09/28 07:00:05;;;;;;;0.30;0.10;;;;;;;13.70;74.08;100516.81;4966663;28;20034;-72
2021/09/28 07:02:30;;;;;;;0.10;0.10;;;;;;;13.78;74.10;100518.94;4962979;28;20031;-73
2021/09/28 07:04:56;;;;;;;0.85;0.10;;;;;;;13.87;73.49;100508.16;4967342;28;20030;-72
2021/09/28 07:07:24;;;;;;;0.30;0.20;;;;;;;13.93;73.30;100507.84;4963696;28;20169;-70
2021/09/28 07:09:49;;;;;;;0.75;0.32;;;;;;;13.99;73.77;100500.38;4965138;28;20030;-70
2021/09/28 07:12:15;;;;;;;2.30;0.45;;;;;;;14.07;73.37;100507.97;4965334;28;20126;-71
2021/09/28 07:14:40;;;;;;;0.68;0.20;;;;;;;14.10;73.23;100499.16;4968226;28;20035;-71
2021/09/28 07:17:16;;;;;;;0.65;0.30;;;;;;;14.18;72.73;100505.16;4965895;28;20031;-69
2021/09/28 07:19:41;;;;;;;0.35;0.25;;;;;;;14.21;72.81;100499.91;4922175;28;20031;-73
2021/09/28 07:22:07;;;;;;;0.03;0.00;;;;;;;14.28;73.00;100496.81;4968398;28;20035;-73
2021/09/28 07:24:32;;;;;;;0.88;0.00;;;;;;;14.35;72.90;100497.28;4949180;28;20085;-73
2021/09/28 07:26:58;;;;;;;0.35;0.10;;;;;;;14.48;72.67;100495.81;4966020;28;20038;-72
2021/09/28 07:29:23;;;;;;;0.70;0.10;;;;;;;14.57;72.87;100498.75;4969219;28;20049;-73
2021/09/28 07:31:49;;;;;;;0.00;0.00;;;;;;;14.74;72.37;100492.81;4952333;28;20503;-72
2021/09/28 07:34:14;;;;;;;0.10;0.05;;;;;;;14.90;72.45;100490.72;4960455;28;20051;-71
2021/09/28 07:36:39;;;;;;;0.52;0.22;;;;;;;15.07;72.20;100491.06;4945118;28;21800;-72
2021/09/28 07:39:06;;;;;;;1.30;0.32;;;;;;;15.22;71.61;100486.47;4966766;28;20424;-73
2021/09/28 07:41:32;;;;;;;2.85;0.73;;;;;;;15.37;71.60;100494.50;4965105;28;20031;-70
2021/09/28 07:43:57;;;;;;;1.05;0.63;;;;;;;15.56;71.20;100493.72;4966948;28;20034;-71
2021/09/28 07:46:23;;;;;;;1.33;0.40;;;;;;;15.72;70.47;100497.88;4961877;28;20058;-72
2021/09/28 07:48:48;;;;;;;4.70;0.38;;;;;;;15.84;70.27;100495.53;4968311;28;20039;-73
2021/09/28 07:51:15;;;;;;;2.40;0.70;;;;;;;15.95;69.95;100487.09;4965017;28;20031;-73
2021/09/28 07:53:41;;;;;;;3.17;0.80;;;;;;;16.14;69.89;100485.09;4964201;28;20500;-71
2021/09/28 07:56:07;;;;;;;3.22;0.40;;;;;;;16.40;69.64;100481.91;4955759;28;20065;-71
2021/09/28 07:58:33;;;;;;;2.20;0.70;;;;;;;16.61;68.87;100481.50;4969111;28;20027;-71
2021/09/28 08:00:58;;;;;;;2.65;1.02;;;;;;;16.84;68.27;100480.50;4968937;28;20194;-71
2021/09/28 08:03:24;;;;;;;1.38;0.82;;;;;;;17.09;67.83;100481.13;4960408;28;20022;-71
2021/09/28 08:05:50;;;;;;;1.30;0.60;;;;;;;17.24;67.53;100483.56;4963851;28;20019;-70
2021/09/28 08:08:16;;;;;;;2.20;0.57;;;;;;;17.40;67.49;100480.47;4959669;28;20500;-72
2021/09/28 08:10:41;;;;;;;1.42;0.57;;;;;;;17.56;66.84;100478.97;4962636;28;20497;-73
2021/09/28 08:13:07;;;;;;;2.03;0.80;;;;;;;17.81;66.04;100473.97;4962449;28;20477;-72
2021/09/28 08:15:34;;;;;;;2.13;0.82;;;;;;;18.01;65.31;100467.16;4970115;28;20027;-72
2021/09/28 08:17:59;;;;;;;1.15;0.60;;;;;;;18.18;65.14;100472.00;4951138;28;20039;-71
2021/09/28 08:20:25;;;;;;;2.63;0.68;;;;;;;18.36;64.14;100469.34;4943986;28;20030;-71
2021/09/28 08:22:50;;;;;;;3.60;0.75;;;;;;;18.49;64.06;100465.66;4956807;28;20461;-71
2021/09/28 08:25:18;;;;;;;2.58;0.90;;;;;;;18.62;63.07;100467.50;4966885;28;20437;-71
2021/09/28 08:30:28;;;;;;;3.03;0.93;;;;;;;18.89;63.21;100462.06;4965539;28;20054;-71
2021/09/28 08:32:53;;;;;;;1.65;1.20;;;;;;;19.09;62.12;100471.75;4969273;28;20026;-70
2021/09/28 08:35:19;;;;;;;5.00;0.73;;;;;;;19.09;62.29;100458.69;4972299;28;20055;-70
2021/09/28 08:37:45;;;;;;;2.03;0.70;;;;;;;19.04;62.16;100463.56;4965980;28;20042;-71
2021/09/28 08:40:13;;;;;;;5.45;1.23;;;;;;;18.82;61.12;100465.28;4974239;28;20057;-67
2021/09/28 08:42:39;;;;;;;3.08;1.15;;;;;;;18.53;61.10;100466.66;4964592;28;20031;-68
2021/09/28 08:45:06;;;;;;;7.03;1.83;;;;;;;18.16;61.94;100470.66;4968692;28;20038;-68
2021/09/28 08:47:44;;;;;;;8.98;2.03;;;;;;;17.90;62.33;100460.25;4968085;28;20034;-67
2021/09/28 08:50:15;;;;;;;2.35;0.77;;;;;;;17.73;63.82;100455.38;4973534;28;20031;-68
2021/09/28 08:52:43;;;;;;;0.98;0.65;;;;;;;17.68;63.76;100448.00;4972629;28;20240;-68
2021/09/28 08:55:10;;;;;;;6.03;0.88;;;;;;;17.74;63.80;100451.47;4967807;28;20027;-68
2021/09/28 08:57:36;;;;;;;4.47;1.75;;;;;;;17.94;63.21;100451.00;4972198;28;20027;-67
2021/09/28 09:00:24;;;;;;;1.98;0.73;;;;;;;18.12;62.04;100448.34;4974077;28;20022;-67
2021/09/28 09:02:50;;;;;;;4.95;0.73;;;;;;;18.71;62.10;100448.13;4969718;28;20485;-67
2021/09/28 09:05:17;;;;;;;3.20;0.70;;;;;;;18.73;59.79;100439.50;4975364;28;20027;-68
2021/09/28 09:07:57;;;;;;;5.65;0.88;;;;;;;18.42;60.02;100448.69;4980196;28;20027;-66
2021/09/28 09:10:28;;;;;;;4.35;0.77;;;;;;;18.02;60.85;100456.91;4975793;28;20089;-68
2021/09/28 09:12:54;;;;;;;3.65;0.77;;;;;;;17.82;61.26;100452.69;4960452;28;20030;-68
2021/09/28 09:15:27;;;;;;;8.63;0.73;;;;;;;17.71;62.00;100446.56;4959543;28;20041;-68
2021/09/28 09:17:56;;;;;;;3.03;1.35;;;;;;;17.50;62.50;100429.66;4964286;28;20026;-68
2021/09/28 09:20:27;;;;;;;5.82;0.43;;;;;;;17.48;62.16;100432.75;4944009;28;20061;-68
2021/09/28 09:22:53;;;;;;;2.30;0.50;;;;;;;17.37;61.89;100434.91;4970066;28;20023;-69
2021/09/28 09:25:36;;;;;;;1.95;0.63;;;;;;;17.53;62.04;100424.31;4954723;28;20421;-70
2021/09/28 09:28:17;;;;;;;3.03;0.60;;;;;;;18.50;59.97;100417.44;4961853;28;20477;-71
2021/09/28 09:30:43;;;;;;;2.20;0.68;;;;;;;19.35;57.47;100442.13;4966393;28;20026;-70
2021/09/28 09:33:08;;;;;;;2.88;0.82;;;;;;;19.99;55.93;100426.78;4956844;28;20037;-68
2021/09/28 09:35:35;;;;;;;1.00;0.75;;;;;;;20.84;53.19;100433.50;4968157;28;20118;-69
2021/09/28 09:38:10;;;;;;;1.20;0.77;;;;;;;21.41;52.55;100429.34;4974615;28;20038;-68
2021/09/28 09:40:43;;;;;;;3.42;0.80;;;;;;;21.91;51.91;100418.47;4965485;28;20030;-69
2021/09/28 09:43:10;;;;;;;2.13;0.93;;;;;;;22.45;51.37;100421.16;4968371;28;20492;-67
2021/09/28 09:45:36;;;;;;;1.67;0.73;;;;;;;22.79;49.96;100415.47;4961355;28;20047;-68
2021/09/28 09:48:21;;;;;;;4.15;0.60;;;;;;;23.22;49.36;100410.44;4960980;28;20086;-68
2021/09/28 09:51:01;;;;;;;7.07;0.93;;;;;;;23.74;47.06;100406.75;4964337;28;20050;-67
2021/09/28 09:53:27;;;;;;;1.73;0.77;;;;;;;24.28;46.90;100402.63;4948403;28;20030;-68
2021/09/28 09:55:52;;;;;;;6.30;1.58;;;;;;;24.83;44.79;100396.44;4957478;28;20030;-68
2021/09/28 09:58:20;;;;;;;6.13;1.25;;;;;;;25.47;43.04;100399.06;4965840;28;20485;-68
2021/09/28 10:00:49;;;;;;;4.18;1.00;;;;;;;25.96;41.07;100388.00;4952105;28;20039;-68
2021/09/28 10:03:15;;;;;;;2.47;0.90;;;;;;;26.46;40.70;100387.28;4964426;28;20449;-69
2021/09/28 10:05:41;;;;;;;4.05;0.70;;;;;;;26.95;38.01;100385.66;4943576;28;20086;-68
2021/09/28 10:08:11;;;;;;;1.77;0.98;;;;;;;26.98;37.42;100380.09;4953620;28;20481;-68
2021/09/28 10:10:38;;;;;;;3.92;0.68;;;;;;;27.09;37.66;100379.44;4961739;28;21258;-69
2021/09/28 10:13:04;;;;;;;1.48;0.90;;;;;;;27.15;36.81;100383.53;4967947;28;20473;-67
2021/09/28 10:15:30;;;;;;;3.75;1.02;;;;;;;27.28;36.76;100368.06;4967568;28;20109;-69
2021/09/28 10:17:55;;;;;;;2.95;0.93;;;;;;;27.29;37.11;100382.88;4954109;28;20047;-68
2021/09/28 10:20:21;;;;;;;2.60;0.88;;;;;;;27.77;37.80;100363.41;4968611;28;21164;-68
2021/09/28 10:22:53;;;;;;;1.52;0.50;;;;;;;27.67;36.17;100370.56;4962371;28;20452;-68
2021/09/28 10:25:18;;;;;;;2.40;1.10;;;;;;;26.65;37.02;100378.78;4973921;28;20572;-72
2021/09/28 10:27:45;;;;;;;2.05;0.73;;;;;;;25.20;39.15;100368.88;4971113;28;20055;-71
2021/09/28 10:30:10;;;;;;;2.22;0.98;;;;;;;23.77;39.59;100361.41;4970815;28;20164;-73
2021/09/28 10:32:37;;;;;;;5.70;0.85;;;;;;;22.75;42.76;100356.84;4970882;28;20058;-72
2021/09/28 10:35:05;;;;;;;2.45;0.90;;;;;;;22.74;44.61;100349.63;4967734;28;20057;-72
2021/09/28 10:37:52;;;;;;;4.00;1.38;;;;;;;24.17;42.08;100363.28;4969916;28;20042;-72
2021/09/28 10:40:21;;;;;;;7.82;1.13;;;;;;;25.04;39.63;100354.97;4965688;28;20164;-72
2021/09/28 10:42:50;;;;;;;3.20;0.90;;;;;;;25.65;38.76;100349.81;4955579;28;20057;-72
2021/09/28 10:45:17;;;;;;;1.77;0.52;;;;;;;25.78;36.15;100336.44;4957821;28;20027;-72
2021/09/28 10:47:52;;;;;;;0.98;0.63;;;;;;;25.34;37.00;100339.59;4967786;28;20441;-74
2021/09/28 10:50:30;;;;;;;5.00;1.00;;;;;;;24.88;38.34;100329.84;4969628;28;20027;-72
2021/09/28 10:53:19;;;;;;;2.05;1.40;;;;;;;23.77;39.21;100310.31;4967075;28;20061;-72
2021/09/28 10:55:50;;;;;;;6.68;1.00;;;;;;;23.29;41.13;100326.97;4925966;28;20479;-71
2021/09/28 10:58:20;;;;;;;1.92;1.02;;;;;;;23.34;38.86;100326.72;4966900;28;20034;-71
2021/09/28 11:00:45;;;;;;;4.93;0.98;;;;;;;23.07;39.79;100304.03;4954343;28;20480;-71
2021/09/28 11:03:11;;;;;;;1.02;0.35;;;;;;;23.04;40.68;100318.66;4951917;28;20042;-71
2021/09/28 11:05:58;;;;;;;0.82;0.45;;;;;;;22.96;41.61;100300.09;4959214;28;21128;-72
2021/09/28 11:08:28;;;;;;;4.93;1.13;;;;;;;22.51;42.27;100290.00;4967051;28;20113;-72
2021/09/28 11:10:56;;;;;;;2.40;0.80;;;;;;;21.72;43.84;100300.13;4963382;28;20085;-71
2021/09/28 11:13:35;;;;;;;1.50;1.20;;;;;;;21.14;45.10;100288.09;4967016;28;20147;-72
2021/09/28 11:16:04;;;;;;;7.07;1.38;;;;;;;20.61;52.73;100294.03;4948893;28;20031;-71
2021/09/28 11:18:31;;;;;;;2.58;1.20;;;;;;;20.26;52.57;100291.47;4965384;28;20109;-72
2021/09/28 11:21:13;;;;;;;3.75;1.00;;;;;;;20.69;51.46;100293.19;4952465;28;20038;-71
2021/09/28 11:23:40;;;;;;;2.97;0.70;;;;;;;22.00;46.22;100282.75;4931898;28;20062;-71
2021/09/28 11:26:06;;;;;;;3.53;1.00;;;;;;;22.74;42.63;100265.22;4953079;28;20049;-72
2021/09/28 11:28:32;;;;;;;5.18;1.10;;;;;;;22.51;40.96;100257.34;4956363;28;20019;-71